Eskdale, New Zealand
Current Conditions -  °F | °C
As of 2:30 PM on Thursday 18 Dec 2014 (Local Time) from NZWN Reporting Station
Light Rain Light Rain  
Wind Chill: 61°   Ceiling: 1200
Heat Index: 61°   Visibility: 3mi
Dew Point: 61°   Wind: 17mph
Humidity: 100%   Direction: 10°N
Pressure: 29.74"   Gusts: NA
Location:  39.39°S, 176.83°E
Report Text: NZWN 180230Z AUTO 01015KT 5000 -RA BKN012/// 16/16 Q1007 TEMPO9999 BKN020 TEMPO 4000 RA
Loading
Personal Weather Stations






























Interactive Weather Map New forecast layout! Learn more

10-Day Weather Forecast

Advertisements
Track Severe Weather on mobile